Time;durP1;ratioP1;P1;durP2;ratioP2;P2;SDS_P1;SDS_P2;PMS_P1;PMS_P2;Temp;Humidity;BMP_temperature;BMP_pressure;BME280_temperature;BME280_humidity;BME280_pressure;Samples;Min_cycle;Max_cycle;Signal;HPM_P1;HPM_P2
2021/08/10 00:00:09;;;;;;;5.25;2.83;;;;;;;23.52;63.56;101384.59;1778524;79;25901;-64
2021/08/10 00:02:40;;;;;;;9.40;3.45;;;;;;;23.48;64.23;101382.80;1781000;79;25728;-64
2021/08/10 00:05:08;;;;;;;8.18;3.10;;;;;;;23.42;64.52;101387.20;1751647;81;26986;-64
2021/08/10 00:07:35;;;;;;;8.10;3.15;;;;;;;23.37;64.00;101381.48;1755467;80;25849;-64
2021/08/10 00:10:04;;;;;;;14.18;3.80;;;;;;;23.40;64.07;101376.09;1778185;80;27485;-64
2021/08/10 00:12:31;;;;;;;6.55;3.50;;;;;;;23.41;63.91;101377.28;1783803;79;26246;-64
2021/08/10 00:14:58;;;;;;;10.58;3.45;;;;;;;23.32;64.48;101383.14;1777519;79;25786;-64
2021/08/10 00:17:25;;;;;;;7.75;3.67;;;;;;;23.12;64.56;101386.66;1783665;80;25725;-64
2021/08/10 00:19:52;;;;;;;7.95;3.50;;;;;;;22.89;65.25;101387.80;1787003;80;25626;-64
2021/08/10 00:22:18;;;;;;;5.97;3.37;;;;;;;22.67;65.94;101388.42;1777633;80;27448;-64
2021/08/10 00:24:45;;;;;;;12.13;3.27;;;;;;;22.53;66.71;101391.59;1756812;80;25923;-64
2021/08/10 00:27:15;;;;;;;13.90;3.85;;;;;;;22.39;67.42;101391.16;1797056;79;25651;-64
2021/08/10 00:29:43;;;;;;;9.60;4.12;;;;;;;22.20;68.30;101390.27;1797032;79;26286;-63
2021/08/10 00:32:11;;;;;;;7.47;3.55;;;;;;;22.07;68.38;101395.66;1797624;79;25779;-64
2021/08/10 00:34:38;;;;;;;10.88;3.60;;;;;;;21.99;69.06;101399.91;1797041;79;27466;-64
2021/08/10 00:37:07;;;;;;;11.30;3.25;;;;;;;21.89;70.03;101395.61;1796469;79;25718;-63
2021/08/10 00:39:35;;;;;;;7.17;3.60;;;;;;;21.82;70.23;101400.19;1796959;79;25873;-64
2021/08/10 00:42:05;;;;;;;11.45;4.00;;;;;;;21.83;70.37;101402.39;1797427;79;26143;-64
2021/08/10 00:44:33;;;;;;;8.48;4.10;;;;;;;21.78;70.50;101405.71;1797198;79;25829;-64
2021/08/10 00:47:03;;;;;;;12.28;3.87;;;;;;;21.73;70.92;101399.98;1797544;78;27535;-64
2021/08/10 00:49:29;;;;;;;9.98;3.87;;;;;;;21.68;70.84;101399.20;1796889;79;25799;-64
2021/08/10 00:51:57;;;;;;;14.38;3.70;;;;;;;21.65;71.40;101400.11;1796321;79;25733;-63
2021/08/10 00:54:25;;;;;;;6.22;3.25;;;;;;;21.69;70.82;101400.03;1797184;79;26193;-64
2021/08/10 00:56:55;;;;;;;13.50;3.25;;;;;;;21.78;70.87;101396.13;1797047;79;25783;-64
2021/08/10 00:59:27;;;;;;;10.40;3.55;;;;;;;21.89;70.34;101393.37;1792264;80;27491;-63
2021/08/10 01:01:56;;;;;;;7.60;3.83;;;;;;;22.01;70.30;101395.06;1791283;80;25981;-63
2021/08/10 01:04:24;;;;;;;14.30;3.27;;;;;;;22.07;71.06;101394.80;1793503;80;25663;-64
2021/08/10 01:07:35;;;;;;;7.22;3.50;;;;;;;22.02;70.82;101392.14;1793290;80;25659;-64
2021/08/10 01:10:20;;;;;;;10.55;3.42;;;;;;;22.03;69.96;101395.72;1793388;80;26019;-64
2021/08/10 01:13:16;;;;;;;11.20;3.30;;;;;;;22.08;69.74;101394.62;1773296;80;27485;-64
2021/08/10 01:15:58;;;;;;;15.43;3.50;;;;;;;22.16;69.42;101392.23;1779264;80;25733;-64
2021/08/10 01:18:30;;;;;;;13.80;3.80;;;;;;;22.22;69.13;101387.86;1793181;79;25707;-63
2021/08/10 01:21:25;;;;;;;9.45;3.50;;;;;;;22.25;68.71;101392.95;1792977;80;25786;-63
2021/08/10 01:24:13;;;;;;;7.37;3.12;;;;;;;22.27;68.65;101391.70;1792260;80;25825;-63
2021/08/10 01:27:07;;;;;;;8.90;3.55;;;;;;;22.32;68.44;101399.33;1767269;80;27946;-63
2021/08/10 01:29:52;;;;;;;6.70;3.52;;;;;;;22.35;68.15;101393.46;1793128;80;26177;-63
2021/08/10 01:32:22;;;;;;;7.37;3.37;;;;;;;22.35;68.21;101394.30;1793833;80;25889;-63
2021/08/10 01:34:51;;;;;;;5.60;3.50;;;;;;;22.38;68.08;101395.78;1779505;80;25773;-63
2021/08/10 01:37:26;;;;;;;6.33;3.60;;;;;;;22.41;68.17;101387.20;1760812;80;25957;-63
2021/08/10 01:39:59;;;;;;;9.03;3.90;;;;;;;22.44;67.92;101388.19;1766027;80;28145;-63
2021/08/10 01:42:30;;;;;;;4.75;3.25;;;;;;;22.47;67.77;101397.36;1792648;80;25706;-63
2021/08/10 01:45:02;;;;;;;5.40;3.10;;;;;;;22.49;67.56;101398.02;1793522;80;25635;-64
2021/08/10 01:47:33;;;;;;;12.28;3.33;;;;;;;22.50;67.48;101394.23;1793529;80;26499;-64
2021/08/10 01:50:06;;;;;;;5.67;3.77;;;;;;;22.54;67.37;101396.58;1793118;80;25714;-64
2021/08/10 01:52:34;;;;;;;9.03;3.98;;;;;;;22.53;67.18;101398.45;1793732;80;28167;-64
2021/08/10 01:55:05;;;;;;;8.83;3.22;;;;;;;22.51;67.24;101400.03;1792502;80;25690;-63
2021/08/10 01:57:35;;;;;;;9.43;3.80;;;;;;;22.53;67.24;101396.25;1755548;80;25768;-64
2021/08/10 02:00:05;;;;;;;6.37;3.55;;;;;;;22.55;67.34;101395.00;1748193;81;25829;-63
2021/08/10 02:02:34;;;;;;;10.88;4.75;;;;;;;22.54;67.16;101393.30;1765688;81;25952;-62
2021/08/10 02:05:07;;;;;;;9.60;4.30;;;;;;;22.60;66.93;101403.99;1766502;80;28217;-63
2021/08/10 02:07:35;;;;;;;12.70;4.95;;;;;;;22.51;66.63;101409.63;1748238;81;25726;-64
2021/08/10 02:10:03;;;;;;;9.33;4.75;;;;;;;22.29;66.92;101403.33;1767877;79;25801;-63
2021/08/10 02:12:31;;;;;;;8.55;4.40;;;;;;;22.16;67.50;101410.05;1767909;79;25491;-63
2021/08/10 02:14:59;;;;;;;10.98;4.45;;;;;;;22.08;67.53;101409.69;1765555;79;25731;-63
2021/08/10 02:17:28;;;;;;;7.30;4.40;;;;;;;22.04;67.72;101407.00;1736350;82;27485;-63
2021/08/10 02:19:57;;;;;;;7.97;4.35;;;;;;;21.92;68.01;101399.01;1737853;82;25813;-63
2021/08/10 02:22:26;;;;;;;7.80;4.30;;;;;;;21.93;68.43;101399.30;1737603;82;25484;-63
2021/08/10 02:25:00;;;;;;;9.75;3.80;;;;;;;21.92;68.31;101397.64;1718919;82;25826;-62
2021/08/10 02:27:45;;;;;;;9.45;3.85;;;;;;;21.87;68.40;101400.97;1737341;81;25804;-63
2021/08/10 02:30:18;;;;;;;6.10;4.12;;;;;;;21.88;68.42;101396.65;1739679;81;28188;-62
2021/08/10 02:32:48;;;;;;;5.90;3.77;;;;;;;21.94;68.34;101403.74;1768245;79;25527;-63
2021/08/10 02:35:19;;;;;;;18.67;4.22;;;;;;;21.99;68.29;101400.74;1768055;80;25902;-62
2021/08/10 02:37:47;;;;;;;7.25;3.37;;;;;;;22.00;68.35;101405.72;1767768;80;26151;-62
2021/08/10 02:40:19;;;;;;;6.90;3.27;;;;;;;21.91;68.64;101403.63;1767885;80;25491;-62
2021/08/10 02:42:53;;;;;;;6.58;3.45;;;;;;;21.81;68.49;101414.05;1767067;81;27372;-62
2021/08/10 02:45:21;;;;;;;9.80;4.15;;;;;;;21.69;68.92;101416.46;1768397;81;25787;-62
2021/08/10 02:47:51;;;;;;;6.92;3.42;;;;;;;21.47;69.83;101412.82;1760891;80;25739;-62
2021/08/10 02:50:20;;;;;;;16.90;3.55;;;;;;;21.29;70.15;101404.52;1718566;82;25693;-62
2021/08/10 02:52:47;;;;;;;6.80;3.65;;;;;;;21.13;71.23;101402.84;1737476;82;25661;-62
2021/08/10 02:55:21;;;;;;;11.60;4.22;;;;;;;20.96;71.52;101402.21;1737489;81;27404;-62
2021/08/10 02:57:59;;;;;;;10.08;4.05;;;;;;;20.76;72.63;101398.68;1744620;79;25752;-62
2021/08/10 03:00:30;;;;;;;9.78;4.10;;;;;;;20.69;72.46;101406.41;1770676;81;25470;-62
2021/08/10 03:03:05;;;;;;;9.78;3.98;;;;;;;20.70;72.79;101405.38;1770499;81;25641;-62
2021/08/10 03:05:34;;;;;;;12.35;3.58;;;;;;;20.67;73.18;101400.27;1770796;79;25896;-62
2021/08/10 03:08:07;;;;;;;9.43;3.67;;;;;;;20.67;72.63;101408.48;1770640;81;28117;-63
2021/08/10 03:10:37;;;;;;;11.57;3.30;;;;;;;20.76;72.74;101404.14;1770580;81;25823;-62
2021/08/10 03:13:07;;;;;;;7.15;3.42;;;;;;;20.83;72.64;101411.08;1776290;80;25698;-62
2021/08/10 03:15:38;;;;;;;5.70;3.40;;;;;;;20.84;72.04;101414.66;1783730;79;25777;-63
2021/08/10 03:18:12;;;;;;;6.83;3.85;;;;;;;20.84;72.35;101409.19;1783991;80;25509;-62
2021/08/10 03:20:42;;;;;;;;;;;;;;;20.83;72.62;101410.22;1786898;80;28107;-62
2021/08/10 03:23:13;;;;;;;11.38;5.83;;;;;;;20.84;72.06;101406.45;1783898;79;25742;-62
2021/08/10 03:25:42;;;;;;;11.05;5.75;;;;;;;20.87;72.00;101410.19;1783311;79;25718;-62
2021/08/10 03:28:12;;;;;;;12.03;6.05;;;;;;;20.88;72.08;101408.62;1774248;80;25726;-63
2021/08/10 03:30:41;;;;;;;23.05;4.62;;;;;;;20.89;71.92;101406.22;1767860;81;25762;-63
2021/08/10 03:33:09;;;;;;;15.25;4.53;;;;;;;20.90;71.81;101404.31;1767666;81;27452;-63
2021/08/10 03:35:44;;;;;;;18.48;4.53;;;;;;;20.95;71.92;101406.81;1780690;80;25815;-63
2021/08/10 03:38:12;;;;;;;7.97;4.72;;;;;;;20.95;71.72;101408.18;1754281;80;25930;-64
2021/08/10 03:40:41;;;;;;;10.53;3.55;;;;;;;20.92;71.62;101407.72;1775172;79;25870;-65
2021/08/10 03:43:11;;;;;;;16.12;3.55;;;;;;;20.94;71.48;101414.69;1765540;79;26115;-65
2021/08/10 03:45:39;;;;;;;6.62;4.45;;;;;;;20.93;71.47;101411.62;1766120;80;27445;-63
2021/08/10 03:48:07;;;;;;;9.00;4.10;;;;;;;20.98;71.69;101413.78;1765678;80;25822;-63
2021/08/10 03:50:35;;;;;;;8.30;4.60;;;;;;;20.97;71.40;101416.72;1783937;80;26347;-63
2021/08/10 03:53:04;;;;;;;9.60;3.83;;;;;;;20.94;71.48;101415.22;1783600;80;26118;-64
2021/08/10 03:55:34;;;;;;;8.35;4.25;;;;;;;20.94;71.60;101420.16;1784052;80;25790;-63
2021/08/10 03:58:06;;;;;;;16.10;3.80;;;;;;;20.81;72.41;101418.62;1783836;79;27513;-64
2021/08/10 04:00:39;;;;;;;15.10;4.58;;;;;;;20.62;72.63;101414.00;1783778;80;25509;-63
2021/08/10 04:03:09;;;;;;;10.78;4.22;;;;;;;20.49;73.22;101416.02;1782397;80;34886;-63
2021/08/10 04:05:43;;;;;;;12.28;4.05;;;;;;;20.42;73.46;101416.44;1755767;80;25809;-63
2021/08/10 04:08:15;;;;;;;8.40;4.25;;;;;;;20.37;73.89;101419.39;1783755;79;25946;-63
2021/08/10 04:10:46;;;;;;;9.90;4.33;;;;;;;20.30;74.06;101419.27;1783659;80;27487;-63
2021/08/10 04:13:16;;;;;;;6.70;4.00;;;;;;;20.29;74.18;101420.30;1784057;79;25909;-63
2021/08/10 04:15:46;;;;;;;10.75;4.45;;;;;;;20.28;74.35;101416.73;1783801;79;25738;-63
2021/08/10 04:18:17;;;;;;;6.83;4.42;;;;;;;20.26;74.36;101417.96;1752588;81;25767;-63
2021/08/10 04:20:50;;;;;;;10.20;4.95;;;;;;;20.21;74.80;101421.25;1752802;81;25955;-62
2021/08/10 04:23:18;;;;;;;;;;;;;;;20.16;74.89;101419.06;1756380;80;27615;-62
2021/08/10 04:25:46;;;;;;;12.53;4.80;;;;;;;20.18;75.04;101420.23;1752514;81;25865;-62
2021/08/10 04:28:14;;;;;;;9.83;4.95;;;;;;;20.17;75.46;101419.38;1752530;81;25786;-62
2021/08/10 04:30:42;;;;;;;15.25;5.00;;;;;;;20.16;75.64;101419.06;1754327;80;25501;-62
2021/08/10 04:33:11;;;;;;;8.48;5.05;;;;;;;20.15;75.47;101420.09;1737781;81;25767;-62
2021/08/10 04:35:37;;;;;;;9.03;5.05;;;;;;;20.21;75.49;101424.48;1767629;81;27859;-62
2021/08/10 04:38:05;;;;;;;15.05;4.97;;;;;;;20.26;75.65;101422.06;1767821;81;25857;-62
2021/08/10 04:40:33;;;;;;;9.63;4.95;;;;;;;20.25;75.63;101418.46;1774465;80;25759;-62
2021/08/10 04:43:09;;;;;;;12.35;5.17;;;;;;;20.22;75.84;101424.28;1784150;80;25833;-62
2021/08/10 04:45:38;;;;;;;8.58;4.80;;;;;;;20.19;75.87;101423.31;1781338;80;25851;-62
2021/08/10 04:48:08;;;;;;;8.20;4.65;;;;;;;20.25;75.66;101421.20;1767698;81;26942;-62
2021/08/10 04:50:36;;;;;;;16.37;5.45;;;;;;;20.23;75.93;101421.89;1767808;81;25760;-62
2021/08/10 04:53:03;;;;;;;15.85;4.97;;;;;;;20.27;75.86;101425.97;1767241;81;25805;-61
2021/08/10 04:55:30;;;;;;;8.40;4.75;;;;;;;20.35;75.68;101432.38;1767790;81;26244;-61
2021/08/10 04:57:57;;;;;;;9.50;5.22;;;;;;;20.40;75.76;101432.66;1767746;81;25950;-61
2021/08/10 05:00:24;;;;;;;13.30;5.15;;;;;;;20.42;75.54;101435.56;1763580;79;27455;-61
2021/08/10 05:02:51;;;;;;;10.82;5.65;;;;;;;20.48;75.41;101440.81;1776814;80;25864;-61
2021/08/10 05:05:18;;;;;;;15.63;6.05;;;;;;;20.51;75.30;101440.95;1793805;80;25702;-61
2021/08/10 05:07:46;;;;;;;10.32;5.35;;;;;;;20.52;75.11;101446.22;1793447;80;25784;-61
2021/08/10 05:10:14;;;;;;;20.43;5.58;;;;;;;20.57;74.89;101447.03;1793807;80;25780;-62
2021/08/10 05:12:42;;;;;;;11.57;5.85;;;;;;;20.62;74.83;101436.38;1774548;80;27490;-62
2021/08/10 05:15:13;;;;;;;14.10;5.95;;;;;;;20.73;74.38;101435.08;1772192;80;25678;-62
2021/08/10 05:17:40;;;;;;;8.73;4.62;;;;;;;20.84;74.29;101440.13;1793480;80;25710;-62
2021/08/10 05:20:10;;;;;;;10.93;4.65;;;;;;;20.99;74.00;101433.80;1793859;80;25704;-61
2021/08/10 05:22:40;;;;;;;9.18;4.65;;;;;;;21.11;73.42;101435.03;1760240;80;25552;-61
2021/08/10 05:25:09;;;;;;;14.93;5.05;;;;;;;21.24;73.08;101427.52;1793402;80;27437;-62
2021/08/10 05:27:36;;;;;;;11.30;4.95;;;;;;;21.31;72.67;101432.54;1793360;80;25784;-62
2021/08/10 05:30:06;;;;;;;11.10;4.85;;;;;;;21.33;72.38;101429.60;1758863;79;25818;-62
2021/08/10 05:32:33;;;;;;;15.60;5.28;;;;;;;21.39;72.13;101430.19;1762257;81;25776;-62
2021/08/10 05:35:00;;;;;;;8.48;4.90;;;;;;;21.42;71.89;101426.58;1761987;81;25829;-62
2021/08/10 05:37:29;;;;;;;7.60;4.28;;;;;;;21.49;71.82;101424.43;1762218;81;27703;-62
2021/08/10 05:39:56;;;;;;;12.58;4.90;;;;;;;21.63;71.68;101422.19;1764905;80;25714;-62
2021/08/10 05:42:23;;;;;;;9.00;5.60;;;;;;;21.68;71.17;101434.80;1777986;79;25676;-62
2021/08/10 05:44:51;;;;;;;8.25;4.15;;;;;;;21.62;70.94;101432.81;1792866;80;25751;-63
2021/08/10 05:47:17;;;;;;;12.23;3.98;;;;;;;21.62;71.03;101431.97;1793318;80;25790;-62
2021/08/10 05:49:45;;;;;;;11.97;4.90;;;;;;;21.70;70.93;101437.33;1793809;80;27452;-63
2021/08/10 05:52:12;;;;;;;12.53;4.62;;;;;;;21.76;70.96;101433.80;1793161;80;25806;-62
2021/08/10 05:54:39;;;;;;;9.03;4.40;;;;;;;21.83;70.69;101427.03;1793763;80;25817;-62
2021/08/10 05:57:06;;;;;;;6.72;4.40;;;;;;;21.97;70.60;101438.44;1793518;80;25758;-62
2021/08/10 05:59:33;;;;;;;18.95;5.05;;;;;;;22.01;70.12;101435.64;1787046;80;25746;-61
2021/08/10 06:02:05;;;;;;;7.08;4.30;;;;;;;22.07;69.84;101438.62;1762315;81;27487;-61
2021/08/10 06:04:32;;;;;;;17.73;4.53;;;;;;;22.13;69.54;101434.59;1761941;81;26297;-61
2021/08/10 06:07:01;;;;;;;8.83;4.95;;;;;;;22.20;69.35;101438.77;1762240;81;25886;-61
2021/08/10 06:09:29;;;;;;;16.60;5.35;;;;;;;22.29;69.10;101429.36;1761725;81;25741;-61
2021/08/10 06:11:56;;;;;;;19.27;5.05;;;;;;;22.40;68.81;101429.36;1762573;79;25696;-61
2021/08/10 06:14:24;;;;;;;9.08;5.00;;;;;;;22.44;68.23;101426.56;1779484;80;28177;-62
2021/08/10 06:16:51;;;;;;;10.03;5.22;;;;;;;22.55;67.45;101427.06;1778829;80;25766;-60
2021/08/10 06:19:19;;;;;;;9.83;4.83;;;;;;;22.58;66.95;101427.51;1780880;80;25780;-61
2021/08/10 06:21:48;;;;;;;20.80;5.05;;;;;;;22.64;67.00;101428.06;1786603;80;25473;-61
2021/08/10 06:24:15;;;;;;;12.10;5.60;;;;;;;22.79;67.09;101429.33;1793056;80;26416;-61
2021/08/10 06:26:44;;;;;;;10.75;4.90;;;;;;;22.98;66.47;101434.59;1783648;80;27432;-61
2021/08/10 06:29:10;;;;;;;8.45;4.85;;;;;;;23.11;66.10;101429.70;1790423;79;25728;-61
2021/08/10 06:31:39;;;;;;;16.67;5.53;;;;;;;23.23;65.69;101433.27;1788789;79;25787;-63
2021/08/10 06:34:08;;;;;;;11.65;4.47;;;;;;;23.34;65.62;101436.81;1793469;79;26526;-62
2021/08/10 06:36:36;;;;;;;6.87;4.53;;;;;;;23.33;64.90;101442.48;1785602;80;25741;-62
2021/08/10 06:39:04;;;;;;;8.03;4.50;;;;;;;23.24;65.03;101436.34;1787614;79;27469;-61
2021/08/10 06:41:33;;;;;;;17.92;4.37;;;;;;;23.17;64.96;101434.06;1793829;79;25737;-61
2021/08/10 06:44:01;;;;;;;9.95;4.70;;;;;;;23.14;65.61;101430.67;1797887;79;25703;-64
2021/08/10 06:46:30;;;;;;;10.25;4.40;;;;;;;23.25;65.68;101431.18;1787306;80;26508;-63
2021/08/10 06:48:59;;;;;;;20.85;4.78;;;;;;;23.36;65.38;101440.17;1776853;80;25792;-62
2021/08/10 06:51:28;;;;;;;9.25;4.67;;;;;;;23.48;65.27;101440.97;1793187;80;27484;-62
2021/08/10 06:53:56;;;;;;;16.25;5.08;;;;;;;23.56;64.99;101432.54;1737079;81;26243;-61
2021/08/10 06:56:22;;;;;;;10.05;5.15;;;;;;;23.66;64.79;101428.88;1785944;79;25761;-62
2021/08/10 06:58:52;;;;;;;5.50;4.20;;;;;;;23.78;63.78;101426.90;1778299;80;25719;-62
2021/08/10 07:01:18;;;;;;;16.77;4.17;;;;;;;23.81;63.18;101435.56;1780634;80;25718;-62
2021/08/10 07:03:45;;;;;;;8.80;4.70;;;;;;;23.85;63.02;101434.63;1793488;80;27491;-62
2021/08/10 07:06:14;;;;;;;12.63;4.87;;;;;;;23.91;62.73;101428.28;1793233;80;25763;-61
2021/08/10 07:08:41;;;;;;;11.28;5.00;;;;;;;23.98;62.73;101429.70;1793651;80;25836;-61
2021/08/10 07:11:08;;;;;;;6.80;4.20;;;;;;;23.95;63.01;101429.60;1793708;80;26278;-61
2021/08/10 07:13:36;;;;;;;8.08;4.58;;;;;;;24.01;62.49;101420.51;1792900;80;25762;-61
2021/08/10 07:16:05;;;;;;;7.17;4.85;;;;;;;24.11;61.97;101409.63;1793482;80;27420;-64
2021/08/10 07:18:38;;;;;;;15.28;4.67;;;;;;;24.18;61.34;101415.45;1793438;80;25817;-64
2021/08/10 07:21:07;;;;;;;8.00;3.77;;;;;;;24.25;61.33;101414.05;1792917;80;25732;-64
2021/08/10 07:23:34;;;;;;;10.95;5.00;;;;;;;24.27;60.91;101411.95;1793422;80;26344;-62
2021/08/10 07:26:02;;;;;;;8.28;5.10;;;;;;;24.28;61.37;101411.44;1793693;80;26436;-62
2021/08/10 07:28:30;;;;;;;6.83;3.92;;;;;;;24.29;61.20;101412.59;1785174;80;28168;-62
2021/08/10 07:30:57;;;;;;;8.93;4.40;;;;;;;24.36;61.47;101412.59;1760974;80;25783;-63
2021/08/10 07:33:24;;;;;;;9.30;4.58;;;;;;;24.47;60.95;101415.22;1761178;81;25784;-63
2021/08/10 07:35:51;;;;;;;14.13;4.70;;;;;;;24.45;60.25;101401.69;1768979;80;26351;-63
2021/08/10 07:38:18;;;;;;;12.70;4.33;;;;;;;24.43;60.19;101409.30;1793853;80;25858;-63
2021/08/10 07:40:46;;;;;;;13.00;5.33;;;;;;;24.58;60.49;101413.70;1793767;80;27506;-63
2021/08/10 07:43:13;;;;;;;8.20;4.22;;;;;;;24.68;60.26;101404.01;1793782;80;25995;-63
2021/08/10 07:45:41;;;;;;;7.70;4.33;;;;;;;24.80;59.80;101404.19;1793707;80;25726;-63
2021/08/10 07:48:10;;;;;;;9.93;4.50;;;;;;;24.91;59.25;101406.79;1792811;79;25823;-63
2021/08/10 07:50:39;;;;;;;4.45;3.70;;;;;;;24.97;58.61;101404.53;1793817;80;25457;-63
2021/08/10 07:53:07;;;;;;;10.72;4.20;;;;;;;25.03;58.65;101400.63;1793377;80;28393;-62
2021/08/10 07:55:35;;;;;;;9.13;4.20;;;;;;;25.10;58.68;101399.52;1793428;80;25931;-62
2021/08/10 07:58:03;;;;;;;6.90;4.40;;;;;;;25.21;58.69;101402.13;1763594;80;25857;-62
2021/08/10 08:00:30;;;;;;;12.43;5.10;;;;;;;25.29;58.88;101399.13;1786816;80;25474;-63
2021/08/10 08:02:58;;;;;;;14.93;4.47;;;;;;;25.38;58.38;101398.33;1778105;80;25722;-62
2021/08/10 08:05:27;;;;;;;12.75;4.55;;;;;;;25.45;58.00;101404.70;1777795;80;28089;-63
2021/08/10 08:07:54;;;;;;;20.30;4.42;;;;;;;25.55;57.01;101390.44;1777942;80;25872;-62
2021/08/10 08:10:22;;;;;;;7.55;4.03;;;;;;;25.65;57.53;101394.61;1779403;80;25718;-62
2021/08/10 08:12:50;;;;;;;10.50;4.22;;;;;;;25.77;57.40;101397.81;1788610;79;26274;-62
2021/08/10 08:15:17;;;;;;;12.43;6.17;;;;;;;25.73;56.77;101396.55;1791067;80;25746;-62
2021/08/10 08:17:45;;;;;;;19.32;6.08;;;;;;;25.76;56.85;101389.23;1791217;79;28169;-62
2021/08/10 08:20:15;;;;;;;8.38;3.83;;;;;;;25.76;56.24;101389.23;1791289;80;25798;-62
2021/08/10 08:22:43;;;;;;;7.35;4.70;;;;;;;25.87;56.63;101383.52;1789432;79;25785;-63
2021/08/10 08:25:12;;;;;;;6.70;3.65;;;;;;;26.14;55.69;101384.72;1787861;80;26123;-62
2021/08/10 08:27:39;;;;;;;8.68;4.25;;;;;;;26.39;55.02;101378.36;1790507;80;25818;-62
2021/08/10 08:30:09;;;;;;;6.42;3.95;;;;;;;26.51;55.19;101381.20;1792753;80;27391;-62
2021/08/10 08:32:36;;;;;;;12.93;3.50;;;;;;;26.70;53.74;101376.53;1792926;80;25737;-62
2021/08/10 08:35:06;;;;;;;12.25;3.22;;;;;;;26.82;53.94;101374.73;1793412;80;25696;-62
2021/08/10 08:37:34;;;;;;;5.30;3.33;;;;;;;26.95;51.93;101368.73;1793878;80;25798;-61
2021/08/10 08:40:01;;;;;;;4.83;2.90;;;;;;;26.89;52.33;101370.52;1760479;80;25708;-62
2021/08/10 08:42:31;;;;;;;13.13;3.83;;;;;;;27.03;52.59;101373.41;1793517;80;28702;-62
2021/08/10 08:44:58;;;;;;;11.63;3.95;;;;;;;27.26;52.00;101359.95;1779673;79;25831;-62
2021/08/10 08:47:25;;;;;;;10.75;3.08;;;;;;;27.37;52.14;101364.69;1761071;80;25744;-63
2021/08/10 08:49:57;;;;;;;5.62;4.17;;;;;;;27.27;50.93;101367.98;1760752;81;25906;-62
2021/08/10 08:52:25;;;;;;;13.88;7.62;;;;;;;27.24;50.91;101357.95;1761210;81;25719;-63
2021/08/10 08:54:58;;;;;;;9.68;3.75;;;;;;;27.12;50.60;101354.59;1760761;81;27486;-64
2021/08/10 08:57:29;;;;;;;15.95;3.85;;;;;;;27.13;51.08;101354.90;1760673;81;25809;-63
2021/08/10 08:59:56;;;;;;;10.00;3.30;;;;;;;27.32;51.68;101349.33;1775858;79;25837;-63
2021/08/10 09:02:23;;;;;;;11.35;3.50;;;;;;;27.51;51.02;101344.64;1762710;79;25770;-63
2021/08/10 09:04:51;;;;;;;11.00;3.08;;;;;;;27.69;50.53;101343.70;1760956;81;25867;-62
2021/08/10 09:07:25;;;;;;;7.40;2.65;;;;;;;27.82;49.64;101341.82;1761027;81;27528;-62
2021/08/10 09:10:15;;;;;;;6.83;2.80;;;;;;;27.80;48.47;101352.57;1761049;80;34840;-62
2021/08/10 09:12:54;;;;;;;4.17;2.75;;;;;;;27.78;49.11;101342.84;1762823;80;25522;-62
2021/08/10 09:15:37;;;;;;;5.85;2.60;;;;;;;27.80;49.06;101347.05;1774774;80;25825;-62
2021/08/10 09:18:15;;;;;;;10.35;3.15;;;;;;;27.85;48.92;101346.33;1793497;80;25473;-62
2021/08/10 09:21:04;;;;;;;4.47;2.87;;;;;;;28.10;47.91;101337.00;1791758;80;27506;-62
2021/08/10 09:23:47;;;;;;;3.83;2.67;;;;;;;28.41;46.89;101335.78;1793789;80;25934;-62
2021/08/10 09:26:26;;;;;;;4.30;3.00;;;;;;;28.67;46.30;101330.80;1759438;80;25772;-62
2021/08/10 09:28:59;;;;;;;3.90;2.12;;;;;;;28.87;45.17;101326.81;1791056;80;25792;-62
2021/08/10 09:31:40;;;;;;;8.18;2.60;;;;;;;29.03;45.47;101331.56;1793608;80;25813;-62
2021/08/10 09:34:40;;;;;;;3.08;2.27;;;;;;;29.46;45.55;101329.88;1793844;80;28291;-62
2021/08/10 09:37:16;;;;;;;6.58;2.52;;;;;;;30.09;42.79;101331.22;1785165;80;25852;-64
2021/08/10 09:39:43;;;;;;;7.12;2.25;;;;;;;30.59;40.39;101331.70;1793488;80;25762;-61
2021/08/10 09:42:13;;;;;;;4.50;1.75;;;;;;;30.94;41.02;101330.17;1793476;80;25730;-62
2021/08/10 09:45:02;;;;;;;8.28;2.27;;;;;;;31.46;38.81;101324.07;1762538;81;25525;-62
2021/08/10 09:47:36;;;;;;;5.35;1.87;;;;;;;31.98;38.53;101334.25;1761446;80;28144;-62
2021/08/10 09:50:19;;;;;;;6.07;2.00;;;;;;;32.47;36.99;101333.19;1771857;80;25925;-62
2021/08/10 09:52:46;;;;;;;5.65;1.77;;;;;;;32.73;36.86;101329.97;1791260;78;25812;-62
2021/08/10 09:55:17;;;;;;;3.80;1.75;;;;;;;33.17;35.39;101320.36;1791687;80;26151;-62
2021/08/10 09:58:03;;;;;;;7.20;1.70;;;;;;;33.32;35.18;101318.19;1791299;80;25761;-62
2021/08/10 10:00:46;;;;;;;1.98;1.65;;;;;;;33.24;35.05;101322.35;1777669;80;28419;-63
2021/08/10 10:03:23;;;;;;;8.05;2.12;;;;;;;33.52;34.83;101320.72;1760953;80;25824;-63
2021/08/10 10:05:54;;;;;;;3.90;1.60;;;;;;;33.46;34.03;101313.48;1761416;81;25728;-63
2021/08/10 10:08:25;;;;;;;3.30;1.55;;;;;;;33.77;33.19;101307.87;1779042;80;25789;-63
2021/08/10 10:10:55;;;;;;;9.35;2.45;;;;;;;34.11;32.47;101304.53;1792106;80;26500;-62
2021/08/10 10:13:23;;;;;;;8.58;2.10;;;;;;;33.93;33.17;101312.92;1770513;80;27451;-62
2021/08/10 10:15:51;;;;;;;5.45;1.75;;;;;;;33.98;33.60;101311.50;1760083;80;25813;-62
2021/08/10 10:18:21;;;;;;;11.97;1.67;;;;;;;34.52;32.66;101309.18;1811630;79;25877;-62
2021/08/10 10:20:49;;;;;;;5.30;1.82;;;;;;;34.68;31.37;101316.37;1812477;79;26226;-63
2021/08/10 10:23:25;;;;;;;8.83;1.87;;;;;;;34.67;31.51;101311.89;1812716;79;25761;-63
2021/08/10 10:25:54;;;;;;;9.78;2.55;;;;;;;35.01;31.58;101308.38;1814096;78;28176;-63
2021/08/10 10:28:22;;;;;;;10.15;1.90;;;;;;;35.48;30.80;101300.52;1817465;78;25830;-64
2021/08/10 10:30:50;;;;;;;6.30;1.85;;;;;;;35.68;30.15;101295.88;1775868;79;25807;-64
2021/08/10 10:33:18;;;;;;;3.12;1.20;;;;;;;35.89;30.31;101290.91;1785556;80;25809;-64
2021/08/10 10:35:49;;;;;;;12.07;1.75;;;;;;;35.62;29.85;101289.48;1785147;80;25702;-64
2021/08/10 10:38:18;;;;;;;5.42;1.98;;;;;;;35.62;30.68;101288.09;1785583;80;27499;-64
2021/08/10 10:40:46;;;;;;;3.72;1.70;;;;;;;35.73;29.88;101294.41;1761767;80;25824;-64
2021/08/10 10:43:14;;;;;;;10.08;1.85;;;;;;;35.97;30.23;101292.27;1814927;78;25772;-64
2021/08/10 10:45:43;;;;;;;7.87;1.62;;;;;;;36.52;29.62;101290.53;1817940;78;25816;-64
2021/08/10 10:48:33;;;;;;;8.15;2.05;;;;;;;36.63;29.12;101284.21;1817831;78;26333;-62
2021/08/10 10:51:13;;;;;;;3.83;1.45;;;;;;;37.11;27.95;101279.91;1815785;78;27469;-64
2021/08/10 10:53:44;;;;;;;4.10;1.77;;;;;;;37.34;27.47;101282.07;1817414;78;25932;-63
2021/08/10 10:56:30;;;;;;;7.25;1.57;;;;;;;37.82;27.06;101273.41;1817777;78;25792;-64
2021/08/10 10:59:20;;;;;;;7.62;1.40;;;;;;;38.17;27.04;101275.83;1817542;78;25841;-63
2021/08/10 11:01:47;;;;;;;5.92;1.50;;;;;;;38.59;25.14;101256.16;1772343;78;26150;-63
2021/08/10 11:04:15;;;;;;;6.10;1.42;;;;;;;38.47;26.28;101259.52;1791128;80;27448;-63
2021/08/10 11:06:50;;;;;;;9.65;1.47;;;;;;;37.95;26.33;101261.11;1790867;79;25747;-64
2021/08/10 11:09:47;;;;;;;4.00;1.30;;;;;;;38.11;26.28;101262.45;1764157;80;26227;-63
2021/08/10 11:12:47;;;;;;;2.17;1.40;;;;;;;38.35;26.23;101259.47;1789960;80;25794;-64
2021/08/10 11:15:25;;;;;;;8.38;1.37;;;;;;;39.07;24.85;101253.38;1774126;79;26552;-64
2021/08/10 11:18:15;;;;;;;4.33;1.47;;;;;;;39.32;25.50;101251.94;1793703;79;28342;-64
2021/08/10 11:20:49;;;;;;;11.83;2.37;;;;;;;39.28;25.14;101253.16;1792194;79;25770;-63
2021/08/10 11:23:24;;;;;;;4.22;1.65;;;;;;;39.78;24.21;101258.93;1815635;79;25756;-64
2021/08/10 11:26:06;;;;;;;2.80;1.02;;;;;;;40.26;23.71;101250.27;1815728;79;26207;-64
2021/08/10 11:28:50;;;;;;;5.20;1.20;;;;;;;40.07;23.16;101244.30;1815766;79;26531;-64
2021/08/10 11:31:42;;;;;;;2.02;1.50;;;;;;;39.29;24.15;101242.72;1815908;78;28323;-64
2021/08/10 11:34:33;;;;;;;14.93;1.70;;;;;;;39.36;24.00;101241.69;1816076;79;25887;-63
2021/08/10 11:37:24;;;;;;;5.00;1.22;;;;;;;39.23;23.19;101234.13;1811221;78;25764;-64
2021/08/10 11:40:09;;;;;;;4.25;1.35;;;;;;;39.16;23.39;101234.58;1824024;78;25817;-63